sensor_id;sensor_type;location;lat;lon;timestamp;pressure;altitude;pressure_sealevel;temperature;humidity
7180;BME280;3631;42.152;24.756;2023-03-03T00:00:05;99688.38;;;6.33;100.00
7180;BME280;3631;42.152;24.756;2023-03-03T00:02:32;99684.06;;;6.38;100.00
7180;BME280;3631;42.152;24.756;2023-03-03T00:04:59;99678.06;;;6.36;100.00
7180;BME280;3631;42.152;24.756;2023-03-03T00:07:27;99673.75;;;6.37;100.00
7180;BME280;3631;42.152;24.756;2023-03-03T00:09:54;99675.44;;;6.42;100.00
7180;BME280;3631;42.152;24.756;2023-03-03T00:12:24;99669.53;;;6.31;100.00
7180;BME280;3631;42.152;24.756;2023-03-03T00:14:51;99662.56;;;6.38;100.00
7180;BME280;3631;42.152;24.756;2023-03-03T00:17:21;99662.53;;;6.42;100.00
7180;BME280;3631;42.152;24.756;2023-03-03T00:19:49;99656.53;;;6.40;100.00
7180;BME280;3631;42.152;24.756;2023-03-03T00:22:29;99652.25;;;6.41;100.00
7180;BME280;3631;42.152;24.756;2023-03-03T00:24:59;99641.00;;;6.45;100.00
7180;BME280;3631;42.152;24.756;2023-03-03T00:27:29;99637.56;;;6.44;100.00
7180;BME280;3631;42.152;24.756;2023-03-03T00:29:57;99627.22;;;6.49;100.00
7180;BME280;3631;42.152;24.756;2023-03-03T00:32:26;99635.06;;;6.41;100.00
7180;BME280;3631;42.152;24.756;2023-03-03T00:34:55;99625.63;;;6.37;100.00
7180;BME280;3631;42.152;24.756;2023-03-03T00:37:31;99625.53;;;6.46;100.00
7180;BME280;3631;42.152;24.756;2023-03-03T00:40:12;99616.06;;;6.47;100.00
7180;BME280;3631;42.152;24.756;2023-03-03T00:42:45;99615.16;;;6.52;100.00
7180;BME280;3631;42.152;24.756;2023-03-03T00:45:23;99609.09;;;6.55;100.00
7180;BME280;3631;42.152;24.756;2023-03-03T00:47:52;99607.44;;;6.51;100.00
7180;BME280;3631;42.152;24.756;2023-03-03T00:50:30;99610.03;;;6.49;100.00
7180;BME280;3631;42.152;24.756;2023-03-03T00:53:04;99604.78;;;6.55;100.00
7180;BME280;3631;42.152;24.756;2023-03-03T00:55:33;99605.72;;;6.50;100.00
7180;BME280;3631;42.152;24.756;2023-03-03T00:58:00;99592.00;;;6.46;100.00
7180;BME280;3631;42.152;24.756;2023-03-03T01:00:27;99593.72;;;6.46;100.00
7180;BME280;3631;42.152;24.756;2023-03-03T01:02:54;99578.28;;;6.44;100.00
7180;BME280;3631;42.152;24.756;2023-03-03T01:05:21;99596.28;;;6.50;100.00
7180;BME280;3631;42.152;24.756;2023-03-03T01:07:48;99600.53;;;6.54;100.00
7180;BME280;3631;42.152;24.756;2023-03-03T01:10:17;99602.25;;;6.54;100.00
7180;BME280;3631;42.152;24.756;2023-03-03T01:12:44;99592.81;;;6.51;100.00
7180;BME280;3631;42.152;24.756;2023-03-03T01:15:13;99598.00;;;6.48;100.00
7180;BME280;3631;42.152;24.756;2023-03-03T01:17:40;99599.63;;;6.55;100.00
7180;BME280;3631;42.152;24.756;2023-03-03T01:20:09;99591.00;;;6.61;100.00
7180;BME280;3631;42.152;24.756;2023-03-03T01:22:36;99591.00;;;6.60;100.00
7180;BME280;3631;42.152;24.756;2023-03-03T01:25:04;99589.25;;;6.65;100.00
7180;BME280;3631;42.152;24.756;2023-03-03T01:27:34;99600.41;;;6.65;100.00
7180;BME280;3631;42.152;24.756;2023-03-03T01:30:01;99596.84;;;6.75;100.00
7180;BME280;3631;42.152;24.756;2023-03-03T01:32:28;99596.78;;;6.78;100.00
7180;BME280;3631;42.152;24.756;2023-03-03T01:34:55;99604.56;;;6.77;100.00
7180;BME280;3631;42.152;24.756;2023-03-03T01:37:22;99599.44;;;6.74;100.00
7180;BME280;3631;42.152;24.756;2023-03-03T01:39:49;99593.56;;;6.63;100.00
7180;BME280;3631;42.152;24.756;2023-03-03T01:42:17;99593.72;;;6.47;100.00
7180;BME280;3631;42.152;24.756;2023-03-03T01:44:45;99598.81;;;6.53;100.00
7180;BME280;3631;42.152;24.756;2023-03-03T01:47:13;99594.47;;;6.57;100.00
7180;BME280;3631;42.152;24.756;2023-03-03T01:49:43;99592.84;;;6.48;100.00
7180;BME280;3631;42.152;24.756;2023-03-03T01:52:18;99596.28;;;6.50;100.00
7180;BME280;3631;42.152;24.756;2023-03-03T01:54:51;99591.88;;;6.57;100.00
7180;BME280;3631;42.152;24.756;2023-03-03T01:57:23;99588.53;;;6.52;100.00
7180;BME280;3631;42.152;24.756;2023-03-03T01:59:53;99582.53;;;6.48;100.00
7180;BME280;3631;42.152;24.756;2023-03-03T02:02:21;99582.56;;;6.45;100.00
7180;BME280;3631;42.152;24.756;2023-03-03T02:04:49;99578.28;;;6.44;100.00
7180;BME280;3631;42.152;24.756;2023-03-03T02:07:17;99579.09;;;6.49;100.00
7180;BME280;3631;42.152;24.756;2023-03-03T02:09:53;99573.91;;;6.52;100.00
7180;BME280;3631;42.152;24.756;2023-03-03T02:12:25;99571.38;;;6.48;100.00
7180;BME280;3631;42.152;24.756;2023-03-03T02:14:55;99580.81;;;6.50;100.00
7180;BME280;3631;42.152;24.756;2023-03-03T02:17:22;99579.06;;;6.52;100.00
7180;BME280;3631;42.152;24.756;2023-03-03T02:19:58;99574.72;;;6.56;100.00
7180;BME280;3631;42.152;24.756;2023-03-03T02:22:33;99569.63;;;6.50;100.00
7180;BME280;3631;42.152;24.756;2023-03-03T02:25:07;99571.16;;;6.66;100.00
7180;BME280;3631;42.152;24.756;2023-03-03T02:27:38;99569.53;;;6.57;100.00
7180;BME280;3631;42.152;24.756;2023-03-03T02:30:12;99571.19;;;6.65;100.00
7180;BME280;3631;42.152;24.756;2023-03-03T02:32:39;99575.47;;;6.66;100.00
7180;BME280;3631;42.152;24.756;2023-03-03T02:35:27;99572.97;;;6.56;100.00
7180;BME280;3631;42.152;24.756;2023-03-03T02:37:57;99564.44;;;6.54;100.00
7180;BME280;3631;42.152;24.756;2023-03-03T02:40:29;99555.00;;;6.52;100.00
7180;BME280;3631;42.152;24.756;2023-03-03T02:43:01;99559.09;;;6.68;100.00
7180;BME280;3631;42.152;24.756;2023-03-03T02:45:30;99563.47;;;6.62;100.00
7180;BME280;3631;42.152;24.756;2023-03-03T02:47:57;99568.56;;;6.66;100.00
7180;BME280;3631;42.152;24.756;2023-03-03T02:50:24;99573.84;;;6.57;100.00
7180;BME280;3631;42.152;24.756;2023-03-03T02:52:51;99568.63;;;6.62;100.00
7180;BME280;3631;42.152;24.756;2023-03-03T02:55:18;99569.59;;;6.54;100.00
7180;BME280;3631;42.152;24.756;2023-03-03T02:57:45;99570.50;;;6.47;100.00
7180;BME280;3631;42.152;24.756;2023-03-03T03:00:15;99569.63;;;6.50;100.00
7180;BME280;3631;42.152;24.756;2023-03-03T03:02:42;99573.84;;;6.55;100.00
7180;BME280;3631;42.152;24.756;2023-03-03T03:05:09;99567.09;;;6.45;100.00
7180;BME280;3631;42.152;24.756;2023-03-03T03:07:36;99564.50;;;6.47;100.00
7180;BME280;3631;42.152;24.756;2023-03-03T03:10:04;99564.53;;;6.45;100.00
7180;BME280;3631;42.152;24.756;2023-03-03T03:12:30;99524.41;;;6.22;100.00
7180;BME280;3631;42.152;24.756;2023-03-03T03:14:58;99563.69;;;6.43;100.00
7180;BME280;3631;42.152;24.756;2023-03-03T03:17:26;99557.63;;;6.46;100.00
7180;BME280;3631;42.152;24.756;2023-03-03T03:19:53;99556.78;;;6.47;100.00
7180;BME280;3631;42.152;24.756;2023-03-03T03:22:20;99556.78;;;6.45;100.00
7180;BME280;3631;42.152;24.756;2023-03-03T03:24:46;99553.28;;;6.52;100.00
7180;BME280;3631;42.152;24.756;2023-03-03T03:27:13;99554.94;;;6.56;100.00
7180;BME280;3631;42.152;24.756;2023-03-03T03:29:40;99556.72;;;6.51;100.00
7180;BME280;3631;42.152;24.756;2023-03-03T03:32:07;99549.84;;;6.50;100.00
7180;BME280;3631;42.152;24.756;2023-03-03T03:34:35;99546.34;;;6.56;100.00
7180;BME280;3631;42.152;24.756;2023-03-03T03:37:02;99561.06;;;6.48;100.00
7180;BME280;3631;42.152;24.756;2023-03-03T03:39:29;99550.72;;;6.49;100.00
7180;BME280;3631;42.152;24.756;2023-03-03T03:41:56;99551.59;;;6.48;100.00
7180;BME280;3631;42.152;24.756;2023-03-03T03:44:23;99548.97;;;6.53;100.00
7180;BME280;3631;42.152;24.756;2023-03-03T03:46:50;99550.75;;;6.48;100.00
7180;BME280;3631;42.152;24.756;2023-03-03T03:49:17;99547.28;;;6.52;100.00
7180;BME280;3631;42.152;24.756;2023-03-03T03:51:45;99547.41;;;6.41;100.00
7180;BME280;3631;42.152;24.756;2023-03-03T03:54:12;99559.34;;;6.45;100.00
7180;BME280;3631;42.152;24.756;2023-03-03T03:56:39;99557.50;;;6.56;100.00
7180;BME280;3631;42.152;24.756;2023-03-03T03:59:06;99554.06;;;6.57;100.00
7180;BME280;3631;42.152;24.756;2023-03-03T04:01:33;99554.13;;;6.53;100.00
7180;BME280;3631;42.152;24.756;2023-03-03T04:04:00;99549.88;;;6.47;100.00
7180;BME280;3631;42.152;24.756;2023-03-03T04:06:28;99548.19;;;6.45;100.00
7180;BME280;3631;42.152;24.756;2023-03-03T04:08:56;99551.69;;;6.41;100.00
7180;BME280;3631;42.152;24.756;2023-03-03T04:11:23;99556.00;;;6.42;100.00
7180;BME280;3631;42.152;24.756;2023-03-03T04:13:50;99547.59;;;6.23;100.00
7180;BME280;3631;42.152;24.756;2023-03-03T04:16:17;99547.56;;;6.25;100.00
7180;BME280;3631;42.152;24.756;2023-03-03T04:18:44;99541.50;;;6.30;100.00
7180;BME280;3631;42.152;24.756;2023-03-03T04:21:11;99539.97;;;6.14;100.00
7180;BME280;3631;42.152;24.756;2023-03-03T04:23:38;99542.44;;;6.22;100.00
7180;BME280;3631;42.152;24.756;2023-03-03T04:26:07;99537.22;;;6.28;100.00
7180;BME280;3631;42.152;24.756;2023-03-03T04:28:34;99541.44;;;6.33;100.00
7180;BME280;3631;42.152;24.756;2023-03-03T04:31:01;99553.44;;;6.37;100.00
7180;BME280;3631;42.152;24.756;2023-03-03T04:33:27;99545.59;;;6.46;100.00
7180;BME280;3631;42.152;24.756;2023-03-03T04:35:54;99551.59;;;6.48;100.00
7180;BME280;3631;42.152;24.756;2023-03-03T04:38:21;99538.72;;;6.48;100.00
7180;BME280;3631;42.152;24.756;2023-03-03T04:40:48;99543.84;;;6.51;100.00
7180;BME280;3631;42.152;24.756;2023-03-03T04:43:17;99538.59;;;6.57;100.00
7180;BME280;3631;42.152;24.756;2023-03-03T04:45:43;99538.66;;;6.53;100.00
7180;BME280;3631;42.152;24.756;2023-03-03T04:48:10;99541.22;;;6.54;100.00
7180;BME280;3631;42.152;24.756;2023-03-03T04:50:37;99544.69;;;6.50;100.00
7180;BME280;3631;42.152;24.756;2023-03-03T04:53:04;99543.81;;;6.53;100.00
7180;BME280;3631;42.152;24.756;2023-03-03T04:55:31;99541.22;;;6.54;100.00
7180;BME280;3631;42.152;24.756;2023-03-03T04:57:59;99546.38;;;6.54;100.00
7180;BME280;3631;42.152;24.756;2023-03-03T05:00:27;99543.81;;;6.54;100.00
7180;BME280;3631;42.152;24.756;2023-03-03T05:02:54;99534.31;;;6.56;100.00
7180;BME280;3631;42.152;24.756;2023-03-03T05:05:21;99543.69;;;6.64;100.00
7180;BME280;3631;42.152;24.756;2023-03-03T05:07:48;99553.94;;;6.67;100.00
7180;BME280;3631;42.152;24.756;2023-03-03T05:10:15;99548.03;;;6.59;100.00
7180;BME280;3631;42.152;24.756;2023-03-03T05:12:42;99520.81;;;6.36;100.00
7180;BME280;3631;42.152;24.756;2023-03-03T05:15:10;99554.16;;;6.51;100.00
7180;BME280;3631;42.152;24.756;2023-03-03T05:17:38;99554.16;;;6.51;100.00
7180;BME280;3631;42.152;24.756;2023-03-03T05:20:06;99554.06;;;6.56;100.00
7180;BME280;3631;42.152;24.756;2023-03-03T05:22:34;99557.59;;;6.52;100.00
7180;BME280;3631;42.152;24.756;2023-03-03T05:25:01;99554.25;;;6.42;100.00
7180;BME280;3631;42.152;24.756;2023-03-03T05:27:28;99554.19;;;6.47;100.00
7180;BME280;3631;42.152;24.756;2023-03-03T05:29:55;99544.88;;;6.35;100.00
7180;BME280;3631;42.152;24.756;2023-03-03T05:32:22;99558.41;;;6.54;100.00
7180;BME280;3631;42.152;24.756;2023-03-03T05:34:50;99550.66;;;6.55;100.00
7180;BME280;3631;42.152;24.756;2023-03-03T05:37:17;99557.47;;;6.61;100.00
7180;BME280;3631;42.152;24.756;2023-03-03T05:39:44;99558.22;;;6.68;100.00
7180;BME280;3631;42.152;24.756;2023-03-03T05:42:11;99558.19;;;6.71;100.00
7180;BME280;3631;42.152;24.756;2023-03-03T05:44:39;99555.59;;;6.74;100.00
7180;BME280;3631;42.152;24.756;2023-03-03T05:47:06;99539.41;;;6.63;100.00
7180;BME280;3631;42.152;24.756;2023-03-03T05:49:32;99558.94;;;6.80;100.00
7180;BME280;3631;42.152;24.756;2023-03-03T05:52:01;99567.41;;;6.90;100.00
7180;BME280;3631;42.152;24.756;2023-03-03T05:54:28;99565.66;;;6.93;100.00
7180;BME280;3631;42.152;24.756;2023-03-03T05:56:55;99561.31;;;6.97;100.00
7180;BME280;3631;42.152;24.756;2023-03-03T05:59:22;99558.81;;;6.89;100.00
7180;BME280;3631;42.152;24.756;2023-03-03T06:01:49;99557.09;;;6.90;100.00
7180;BME280;3631;42.152;24.756;2023-03-03T06:04:16;99572.38;;;7.05;100.00
7180;BME280;3631;42.152;24.756;2023-03-03T06:06:43;99571.34;;;7.17;100.00
7180;BME280;3631;42.152;24.756;2023-03-03T06:09:11;99577.38;;;7.16;100.00
7180;BME280;3631;42.152;24.756;2023-03-03T06:11:38;99580.00;;;7.11;100.00
7180;BME280;3631;42.152;24.756;2023-03-03T06:14:05;99581.69;;;7.15;100.00
7180;BME280;3631;42.152;24.756;2023-03-03T06:16:32;99567.31;;;6.98;100.00
7180;BME280;3631;42.152;24.756;2023-03-03T06:18:59;99582.53;;;7.16;100.00
7180;BME280;3631;42.152;24.756;2023-03-03T06:21:26;99586.72;;;7.24;100.00
7180;BME280;3631;42.152;24.756;2023-03-03T06:23:52;99587.56;;;7.26;100.00
7180;BME280;3631;42.152;24.756;2023-03-03T06:26:21;99591.09;;;7.21;100.00
7180;BME280;3631;42.152;24.756;2023-03-03T06:28:48;99590.31;;;7.14;100.00
7180;BME280;3631;42.152;24.756;2023-03-03T06:31:18;99589.41;;;7.18;100.00
7180;BME280;3631;42.152;24.756;2023-03-03T06:33:45;99592.75;;;7.23;100.00
7180;BME280;3631;42.152;24.756;2023-03-03T06:36:12;99590.13;;;7.26;100.00
7180;BME280;3631;42.152;24.756;2023-03-03T06:38:39;99597.81;;;7.31;100.00
7180;BME280;3631;42.152;24.756;2023-03-03T06:41:06;99595.16;;;7.36;100.00
7180;BME280;3631;42.152;24.756;2023-03-03T06:43:34;99595.25;;;7.29;100.00
7180;BME280;3631;42.152;24.756;2023-03-03T06:46:02;99593.75;;;7.13;100.00
7180;BME280;3631;42.152;24.756;2023-03-03T06:48:29;99599.63;;;7.24;100.00
7180;BME280;3631;42.152;24.756;2023-03-03T06:50:57;99597.91;;;7.25;100.00
7180;BME280;3631;42.152;24.756;2023-03-03T06:53:25;99598.78;;;7.22;100.00
7180;BME280;3631;42.152;24.756;2023-03-03T06:55:52;99595.34;;;7.23;100.00
7180;BME280;3631;42.152;24.756;2023-03-03T06:58:20;99598.91;;;7.13;100.00
7180;BME280;3631;42.152;24.756;2023-03-03T07:00:53;99597.06;;;7.23;100.00
7180;BME280;3631;42.152;24.756;2023-03-03T07:03:22;99587.53;;;7.29;100.00
7180;BME280;3631;42.152;24.756;2023-03-03T07:05:50;99560.22;;;7.12;100.00
7180;BME280;3631;42.152;24.756;2023-03-03T07:08:19;99592.75;;;7.23;100.00
7180;BME280;3631;42.152;24.756;2023-03-03T07:10:48;99598.84;;;7.19;100.00
7180;BME280;3631;42.152;24.756;2023-03-03T07:13:18;99596.97;;;7.31;100.00
7180;BME280;3631;42.152;24.756;2023-03-03T07:15:46;99590.94;;;7.32;100.00
7180;BME280;3631;42.152;24.756;2023-03-03T07:18:30;99592.50;;;7.43;100.00
7180;BME280;3631;42.152;24.756;2023-03-03T07:21:07;99596.84;;;7.40;100.00
7180;BME280;3631;42.152;24.756;2023-03-03T07:23:39;99597.63;;;7.45;100.00
7180;BME280;3631;42.152;24.756;2023-03-03T07:26:11;99593.19;;;7.53;100.00
7180;BME280;3631;42.152;24.756;2023-03-03T07:28:41;99598.25;;;7.59;100.00
7180;BME280;3631;42.152;24.756;2023-03-03T07:31:35;99596.50;;;7.61;100.00
7180;BME280;3631;42.152;24.756;2023-03-03T07:34:16;99575.00;;;7.60;100.00
7180;BME280;3631;42.152;24.756;2023-03-03T07:36:46;99600.84;;;7.59;100.00
7180;BME280;3631;42.152;24.756;2023-03-03T07:39:29;99587.78;;;7.68;100.00
7180;BME280;3631;42.152;24.756;2023-03-03T07:42:13;99594.09;;;7.50;100.00
7180;BME280;3631;42.152;24.756;2023-03-03T07:44:40;99597.53;;;7.49;100.00
7180;BME280;3631;42.152;24.756;2023-03-03T07:47:22;99586.41;;;7.46;100.00
7180;BME280;3631;42.152;24.756;2023-03-03T07:49:52;99593.00;;;7.67;100.00
7180;BME280;3631;42.152;24.756;2023-03-03T07:52:27;99586.88;;;7.71;100.00
7180;BME280;3631;42.152;24.756;2023-03-03T07:54:56;99588.44;;;7.81;100.00
7180;BME280;3631;42.152;24.756;2023-03-03T07:57:26;99588.59;;;7.70;100.00
7180;BME280;3631;42.152;24.756;2023-03-03T07:59:56;99590.09;;;7.85;100.00
7180;BME280;3631;42.152;24.756;2023-03-03T08:02:39;99589.34;;;7.78;100.00
7180;BME280;3631;42.152;24.756;2023-03-03T08:05:38;99590.34;;;7.70;100.00
7180;BME280;3631;42.152;24.756;2023-03-03T08:08:18;99589.34;;;7.78;100.00
7180;BME280;3631;42.152;24.756;2023-03-03T08:10:48;99584.31;;;7.69;100.00
7180;BME280;3631;42.152;24.756;2023-03-03T08:13:17;99573.00;;;7.78;100.00
7180;BME280;3631;42.152;24.756;2023-03-03T08:15:46;99579.88;;;7.79;100.00
7180;BME280;3631;42.152;24.756;2023-03-03T08:18:23;99568.63;;;7.80;100.00
7180;BME280;3631;42.152;24.756;2023-03-03T08:20:55;99571.22;;;7.80;100.00
7180;BME280;3631;42.152;24.756;2023-03-03T08:23:22;99577.19;;;7.83;100.00
7180;BME280;3631;42.152;24.756;2023-03-03T08:25:50;99570.38;;;7.79;100.00
7180;BME280;3631;42.152;24.756;2023-03-03T08:28:18;99565.28;;;7.76;100.00
7180;BME280;3631;42.152;24.756;2023-03-03T08:30:46;99554.19;;;7.68;100.00
7180;BME280;3631;42.152;24.756;2023-03-03T08:33:13;99566.97;;;7.79;100.00
7180;BME280;3631;42.152;24.756;2023-03-03T08:35:41;99560.16;;;7.72;100.00
7180;BME280;3631;42.152;24.756;2023-03-03T08:38:10;99556.81;;;7.67;100.00
7180;BME280;3631;42.152;24.756;2023-03-03T08:40:38;99549.78;;;7.76;100.00
7180;BME280;3631;42.152;24.756;2023-03-03T08:43:05;99546.22;;;7.80;100.00
7180;BME280;3631;42.152;24.756;2023-03-03T08:45:32;99546.41;;;7.71;100.00
7180;BME280;3631;42.152;24.756;2023-03-03T08:47:59;99542.78;;;7.81;100.00
7180;BME280;3631;42.152;24.756;2023-03-03T08:50:27;99547.00;;;7.87;100.00
7180;BME280;3631;42.152;24.756;2023-03-03T08:52:54;99531.50;;;7.87;100.00
7180;BME280;3631;42.152;24.756;2023-03-03T08:55:23;99538.25;;;7.94;100.00
7180;BME280;3631;42.152;24.756;2023-03-03T08:57:50;99540.94;;;7.89;100.00
7180;BME280;3631;42.152;24.756;2023-03-03T09:00:19;99546.09;;;7.89;100.00
7180;BME280;3631;42.152;24.756;2023-03-03T09:02:46;99546.16;;;7.85;100.00
7180;BME280;3631;42.152;24.756;2023-03-03T09:05:14;99546.16;;;7.86;100.00
7180;BME280;3631;42.152;24.756;2023-03-03T09:07:42;99544.47;;;7.82;100.00
7180;BME280;3631;42.152;24.756;2023-03-03T09:10:13;99549.56;;;7.88;100.00
7180;BME280;3631;42.152;24.756;2023-03-03T09:12:43;99543.53;;;7.88;100.00
7180;BME280;3631;42.152;24.756;2023-03-03T09:15:19;99532.28;;;7.90;100.00
7180;BME280;3631;42.152;24.756;2023-03-03T09:17:46;99527.81;;;8.00;100.00
7180;BME280;3631;42.152;24.756;2023-03-03T09:20:31;99533.50;;;8.19;100.00
7180;BME280;3631;42.152;24.756;2023-03-03T09:23:21;99536.47;;;8.45;100.00
7180;BME280;3631;42.152;24.756;2023-03-03T09:25:51;99537.25;;;8.47;100.00
7180;BME280;3631;42.152;24.756;2023-03-03T09:28:23;99525.94;;;8.54;100.00
7180;BME280;3631;42.152;24.756;2023-03-03T09:30:54;99523.34;;;8.54;100.00
7180;BME280;3631;42.152;24.756;2023-03-03T09:33:25;99526.34;;;8.76;100.00
7180;BME280;3631;42.152;24.756;2023-03-03T09:36:03;99518.59;;;8.74;100.00
7180;BME280;3631;42.152;24.756;2023-03-03T09:38:32;99521.28;;;8.70;100.00
7180;BME280;3631;42.152;24.756;2023-03-03T09:47:14;99530.44;;;8.45;100.00
7180;BME280;3631;42.152;24.756;2023-03-03T09:49:54;99526.91;;;8.47;100.00
7180;BME280;3631;42.152;24.756;2023-03-03T09:52:34;99522.25;;;8.64;100.00
7180;BME280;3631;42.152;24.756;2023-03-03T09:55:18;99516.88;;;8.73;100.00
7180;BME280;3631;42.152;24.756;2023-03-03T10:00:54;99517.88;;;8.68;100.00
7180;BME280;3631;42.152;24.756;2023-03-03T10:06:21;99509.94;;;8.77;100.00
7180;BME280;3631;42.152;24.756;2023-03-03T10:09:02;99513.63;;;8.65;100.00
7180;BME280;3631;42.152;24.756;2023-03-03T10:11:39;99518.03;;;8.60;100.00
7180;BME280;3631;42.152;24.756;2023-03-03T10:14:17;99515.34;;;8.65;100.00
7180;BME280;3631;42.152;24.756;2023-03-03T10:17:11;99510.44;;;8.53;100.00
7180;BME280;3631;42.152;24.756;2023-03-03T10:19:47;99504.47;;;8.49;100.00
7180;BME280;3631;42.152;24.756;2023-03-03T10:22:19;99514.84;;;8.48;100.00
7180;BME280;3631;42.152;24.756;2023-03-03T10:25:08;99500.31;;;8.42;100.00
7180;BME280;3631;42.152;24.756;2023-03-03T10:27:52;99497.94;;;8.30;100.00
7180;BME280;3631;42.152;24.756;2023-03-03T10:30:30;99502.31;;;8.25;100.00
7180;BME280;3631;42.152;24.756;2023-03-03T10:33:06;99502.38;;;8.23;100.00
7180;BME280;3631;42.152;24.756;2023-03-03T10:38:45;99499.09;;;8.14;100.00
7180;BME280;3631;42.152;24.756;2023-03-03T10:41:30;99486.81;;;8.25;100.00
7180;BME280;3631;42.152;24.756;2023-03-03T10:44:21;99490.06;;;8.36;100.00
7180;BME280;3631;42.152;24.756;2023-03-03T10:46:56;99483.34;;;8.26;100.00
7180;BME280;3631;42.152;24.756;2023-03-03T10:49:38;99476.41;;;8.28;100.00
7180;BME280;3631;42.152;24.756;2023-03-03T10:52:21;99486.16;;;8.15;100.00
7180;BME280;3631;42.152;24.756;2023-03-03T10:55:12;99485.19;;;8.21;100.00
7180;BME280;3631;42.152;24.756;2023-03-03T10:57:47;99476.34;;;8.34;100.00
7180;BME280;3631;42.152;24.756;2023-03-03T11:00:22;99464.94;;;8.43;100.00
7180;BME280;3631;42.152;24.756;2023-03-03T11:03:11;99462.31;;;8.46;100.00
7180;BME280;3631;42.152;24.756;2023-03-03T11:05:48;99452.97;;;8.37;100.00
7180;BME280;3631;42.152;24.756;2023-03-03T11:08:21;99451.28;;;8.36;100.00
7180;BME280;3631;42.152;24.756;2023-03-03T11:10:53;99449.53;;;8.36;100.00
7180;BME280;3631;42.152;24.756;2023-03-03T11:13:35;99452.59;;;8.57;100.00
7180;BME280;3631;42.152;24.756;2023-03-03T11:16:15;99455.13;;;8.58;100.00
7180;BME280;3631;42.152;24.756;2023-03-03T11:18:55;99454.75;;;8.75;100.00
7180;BME280;3631;42.152;24.756;2023-03-03T11:21:32;99451.03;;;8.87;100.00
7180;BME280;3631;42.152;24.756;2023-03-03T11:24:25;99445.00;;;8.86;100.00
7180;BME280;3631;42.152;24.756;2023-03-03T11:27:05;99444.91;;;8.91;100.00
7180;BME280;3631;42.152;24.756;2023-03-03T11:29:59;99447.13;;;9.06;100.00
7180;BME280;3631;42.152;24.756;2023-03-03T11:32:37;99444.75;;;8.97;100.00
7180;BME280;3631;42.152;24.756;2023-03-03T11:35:21;99441.19;;;9.02;100.00
7180;BME280;3631;42.152;24.756;2023-03-03T11:37:59;99433.38;;;9.04;100.00
7180;BME280;3631;42.152;24.756;2023-03-03T11:40:33;99442.44;;;9.22;100.00
7180;BME280;3631;42.152;24.756;2023-03-03T11:43:09;99437.88;;;9.31;100.00
7180;BME280;3631;42.152;24.756;2023-03-03T11:45:41;99433.38;;;9.38;100.00
7180;BME280;3631;42.152;24.756;2023-03-03T11:48:16;99424.03;;;9.32;100.00
7180;BME280;3631;42.152;24.756;2023-03-03T11:50:51;99418.91;;;9.31;100.00
7180;BME280;3631;42.152;24.756;2023-03-03T11:53:31;99416.38;;;9.28;100.00
7180;BME280;3631;42.152;24.756;2023-03-03T11:56:09;99413.91;;;9.23;100.00
7180;BME280;3631;42.152;24.756;2023-03-03T11:58:43;99412.94;;;9.27;100.00
7180;BME280;3631;42.152;24.756;2023-03-03T12:01:19;99410.78;;;9.44;100.00
7180;BME280;3631;42.152;24.756;2023-03-03T12:03:53;99413.09;;;9.55;100.00
7180;BME280;3631;42.152;24.756;2023-03-03T12:06:31;99413.53;;;9.71;100.00
7180;BME280;3631;42.152;24.756;2023-03-03T12:09:12;99408.13;;;9.80;100.00
7180;BME280;3631;42.152;24.756;2023-03-03T12:11:48;99407.03;;;9.87;100.00
7180;BME280;3631;42.152;24.756;2023-03-03T12:14:29;99405.06;;;9.95;100.00
7180;BME280;3631;42.152;24.756;2023-03-03T12:17:03;99399.53;;;10.07;100.00
7180;BME280;3631;42.152;24.756;2023-03-03T12:19:43;99410.91;;;10.03;100.00
7180;BME280;3631;42.152;24.756;2023-03-03T12:22:36;99403.13;;;10.03;100.00
7180;BME280;3631;42.152;24.756;2023-03-03T12:25:32;99399.88;;;9.95;100.00
7180;BME280;3631;42.152;24.756;2023-03-03T12:28:04;99392.03;;;9.98;100.00
7180;BME280;3631;42.152;24.756;2023-03-03T12:30:48;99390.22;;;10.02;100.00
7180;BME280;3631;42.152;24.756;2023-03-03T12:33:26;99390.88;;;10.08;100.00
7180;BME280;3631;42.152;24.756;2023-03-03T12:36:05;99392.50;;;10.12;100.00
7180;BME280;3631;42.152;24.756;2023-03-03T12:38:40;99391.31;;;9.93;100.00
7180;BME280;3631;42.152;24.756;2023-03-03T12:41:18;99398.53;;;9.82;100.00
7180;BME280;3631;42.152;24.756;2023-03-03T12:43:55;99396.66;;;9.87;100.00
7180;BME280;3631;42.152;24.756;2023-03-03T12:46:28;99401.50;;;9.99;100.00
7180;BME280;3631;42.152;24.756;2023-03-03T12:49:01;99399.78;;;10.00;100.00
7180;BME280;3631;42.152;24.756;2023-03-03T12:51:34;99400.75;;;9.96;100.00
7180;BME280;3631;42.152;24.756;2023-03-03T12:54:27;99388.03;;;9.87;100.00
7180;BME280;3631;42.152;24.756;2023-03-03T12:57:07;99394.75;;;9.94;100.00
7180;BME280;3631;42.152;24.756;2023-03-03T12:59:46;99392.22;;;9.92;100.00
7180;BME280;3631;42.152;24.756;2023-03-03T13:02:32;99388.63;;;9.96;100.00
7180;BME280;3631;42.152;24.756;2023-03-03T13:05:06;99396.94;;;9.78;100.00
7180;BME280;3631;42.152;24.756;2023-03-03T13:07:44;99388.25;;;9.79;100.00
7180;BME280;3631;42.152;24.756;2023-03-03T13:10:18;99388.84;;;9.58;100.00
7180;BME280;3631;42.152;24.756;2023-03-03T13:12:55;99388.06;;;9.54;100.00
7180;BME280;3631;42.152;24.756;2023-03-03T13:15:27;99380.66;;;9.40;100.00
7180;BME280;3631;42.152;24.756;2023-03-03T13:18:03;99386.69;;;9.41;100.00
7180;BME280;3631;42.152;24.756;2023-03-03T13:20:44;99379.84;;;9.38;100.00
7180;BME280;3631;42.152;24.756;2023-03-03T13:23:25;99383.22;;;9.42;100.00
7180;BME280;3631;42.152;24.756;2023-03-03T13:25:56;99389.19;;;9.45;100.00
7180;BME280;3631;42.152;24.756;2023-03-03T13:28:31;99387.56;;;9.40;100.00
7180;BME280;3631;42.152;24.756;2023-03-03T13:31:04;99372.31;;;9.29;100.00
7180;BME280;3631;42.152;24.756;2023-03-03T13:33:34;99371.28;;;9.36;100.00
7180;BME280;3631;42.152;24.756;2023-03-03T13:36:05;99374.66;;;9.38;100.00
7180;BME280;3631;42.152;24.756;2023-03-03T13:38:36;99377.97;;;9.45;100.00
7180;BME280;3631;42.152;24.756;2023-03-03T13:41:09;99371.03;;;9.45;100.00
7180;BME280;3631;42.152;24.756;2023-03-03T13:43:45;99366.84;;;9.40;100.00
7180;BME280;3631;42.152;24.756;2023-03-03T13:46:20;99365.72;;;9.50;100.00
7180;BME280;3631;42.152;24.756;2023-03-03T13:49:07;99366.25;;;9.63;100.00